sensor_id;sensor_type;location;lat;lon;timestamp;pressure;altitude;pressure_sealevel;temperature;humidity
59545;BME280;45368;55.002;-1.592;2023-06-14T00:01:03;101351.58;;;20.48;43.91
59545;BME280;45368;55.002;-1.592;2023-06-14T00:03:30;101346.00;;;20.49;43.81
59545;BME280;45368;55.002;-1.592;2023-06-14T00:05:58;101347.86;;;20.37;43.56
59545;BME280;45368;55.002;-1.592;2023-06-14T00:08:25;101346.65;;;20.70;43.46
59545;BME280;45368;55.002;-1.592;2023-06-14T00:10:52;101350.04;;;20.41;43.85
59545;BME280;45368;55.002;-1.592;2023-06-14T00:13:19;101346.06;;;20.15;43.85
59545;BME280;45368;55.002;-1.592;2023-06-14T00:15:47;101349.24;;;20.26;44.11
59545;BME280;45368;55.002;-1.592;2023-06-14T00:18:14;101350.68;;;20.36;44.01
59545;BME280;45368;55.002;-1.592;2023-06-14T00:20:41;101354.55;;;19.79;45.01
59545;BME280;45368;55.002;-1.592;2023-06-14T00:23:08;101353.46;;;20.03;44.89
59545;BME280;45368;55.002;-1.592;2023-06-14T00:25:36;101355.56;;;19.94;45.07
59545;BME280;45368;55.002;-1.592;2023-06-14T00:28:03;101354.16;;;19.97;45.11
59545;BME280;45368;55.002;-1.592;2023-06-14T00:30:30;101354.24;;;20.20;45.14
59545;BME280;45368;55.002;-1.592;2023-06-14T00:32:58;101355.84;;;20.00;45.19
59545;BME280;45368;55.002;-1.592;2023-06-14T00:35:25;101356.22;;;20.20;44.86
59545;BME280;45368;55.002;-1.592;2023-06-14T00:37:53;101357.62;;;19.78;45.57
59545;BME280;45368;55.002;-1.592;2023-06-14T00:40:20;101360.44;;;19.42;46.21
59545;BME280;45368;55.002;-1.592;2023-06-14T00:42:48;101359.59;;;19.50;45.78
59545;BME280;45368;55.002;-1.592;2023-06-14T00:45:15;101363.56;;;20.11;45.21
59545;BME280;45368;55.002;-1.592;2023-06-14T00:47:43;101363.26;;;20.33;45.41
59545;BME280;45368;55.002;-1.592;2023-06-14T00:50:13;101362.57;;;20.13;45.71
59545;BME280;45368;55.002;-1.592;2023-06-14T00:52:40;101366.50;;;19.76;45.83
59545;BME280;45368;55.002;-1.592;2023-06-14T00:55:08;101364.27;;;19.75;45.94
59545;BME280;45368;55.002;-1.592;2023-06-14T00:57:36;101364.55;;;19.68;45.98
59545;BME280;45368;55.002;-1.592;2023-06-14T01:00:04;101364.44;;;19.97;45.92
59545;BME280;45368;55.002;-1.592;2023-06-14T01:02:31;101365.15;;;19.79;46.15
59545;BME280;45368;55.002;-1.592;2023-06-14T01:04:59;101364.65;;;19.83;46.14
59545;BME280;45368;55.002;-1.592;2023-06-14T01:07:35;101363.96;;;19.32;46.53
59545;BME280;45368;55.002;-1.592;2023-06-14T01:10:21;101365.84;;;19.53;46.54
59545;BME280;45368;55.002;-1.592;2023-06-14T01:12:58;101364.31;;;19.25;46.72
59545;BME280;45368;55.002;-1.592;2023-06-14T01:15:29;101365.81;;;19.36;46.82
59545;BME280;45368;55.002;-1.592;2023-06-14T01:17:58;101364.69;;;19.42;46.82
59545;BME280;45368;55.002;-1.592;2023-06-14T01:20:29;101361.54;;;19.35;46.89
59545;BME280;45368;55.002;-1.592;2023-06-14T01:22:57;101359.41;;;19.40;46.79
59545;BME280;45368;55.002;-1.592;2023-06-14T01:25:24;101362.51;;;19.33;46.85
59545;BME280;45368;55.002;-1.592;2023-06-14T01:27:55;101364.31;;;19.52;46.92
59545;BME280;45368;55.002;-1.592;2023-06-14T01:30:24;101364.78;;;19.39;47.09
59545;BME280;45368;55.002;-1.592;2023-06-14T01:32:54;101366.89;;;19.49;47.31
59545;BME280;45368;55.002;-1.592;2023-06-14T01:35:21;101366.69;;;19.17;47.48
59545;BME280;45368;55.002;-1.592;2023-06-14T01:37:49;101367.72;;;19.15;47.61
59545;BME280;45368;55.002;-1.592;2023-06-14T01:40:18;101373.43;;;18.74;47.91
59545;BME280;45368;55.002;-1.592;2023-06-14T01:42:47;101373.76;;;18.78;47.62
59545;BME280;45368;55.002;-1.592;2023-06-14T01:45:15;101369.90;;;19.16;47.52
59545;BME280;45368;55.002;-1.592;2023-06-14T01:47:44;101369.52;;;18.71;48.00
59545;BME280;45368;55.002;-1.592;2023-06-14T01:50:12;101367.00;;;18.78;48.04
59545;BME280;45368;55.002;-1.592;2023-06-14T01:52:39;101372.13;;;17.96;50.75
59545;BME280;45368;55.002;-1.592;2023-06-14T01:55:07;101367.78;;;18.34;49.25
59545;BME280;45368;55.002;-1.592;2023-06-14T01:57:35;101368.24;;;18.52;49.14
59545;BME280;45368;55.002;-1.592;2023-06-14T02:00:02;101373.10;;;18.12;49.40
59545;BME280;45368;55.002;-1.592;2023-06-14T02:02:29;101368.67;;;19.03;48.27
59545;BME280;45368;55.002;-1.592;2023-06-14T02:04:57;101372.64;;;18.29;49.96
59545;BME280;45368;55.002;-1.592;2023-06-14T02:07:24;101374.02;;;18.45;49.51
59545;BME280;45368;55.002;-1.592;2023-06-14T02:09:51;101366.30;;;18.66;48.35
59545;BME280;45368;55.002;-1.592;2023-06-14T02:12:18;101368.32;;;19.37;47.41
59545;BME280;45368;55.002;-1.592;2023-06-14T02:14:46;101367.03;;;19.06;47.06
59545;BME280;45368;55.002;-1.592;2023-06-14T02:17:14;101362.05;;;19.45;46.42
59545;BME280;45368;55.002;-1.592;2023-06-14T02:19:41;101364.69;;;19.32;46.39
59545;BME280;45368;55.002;-1.592;2023-06-14T02:22:09;101363.50;;;19.18;46.36
59545;BME280;45368;55.002;-1.592;2023-06-14T02:24:36;101362.19;;;19.33;46.33
59545;BME280;45368;55.002;-1.592;2023-06-14T02:27:04;101363.85;;;18.99;46.45
59545;BME280;45368;55.002;-1.592;2023-06-14T02:29:31;101362.28;;;19.36;46.25
59545;BME280;45368;55.002;-1.592;2023-06-14T02:31:58;101363.88;;;18.88;46.29
59545;BME280;45368;55.002;-1.592;2023-06-14T02:34:26;101365.49;;;19.03;46.30
59545;BME280;45368;55.002;-1.592;2023-06-14T02:36:53;101365.71;;;18.82;46.36
59545;BME280;45368;55.002;-1.592;2023-06-14T02:39:19;101366.48;;;18.65;46.52
59545;BME280;45368;55.002;-1.592;2023-06-14T02:41:47;101360.76;;;19.10;46.30
59545;BME280;45368;55.002;-1.592;2023-06-14T02:44:14;101361.30;;;19.23;46.25
59545;BME280;45368;55.002;-1.592;2023-06-14T02:46:41;101358.29;;;19.06;46.21
59545;BME280;45368;55.002;-1.592;2023-06-14T02:49:08;101364.67;;;18.89;46.34
59545;BME280;45368;55.002;-1.592;2023-06-14T02:51:36;101361.49;;;18.98;46.10
59545;BME280;45368;55.002;-1.592;2023-06-14T02:54:03;101365.54;;;18.81;46.32
59545;BME280;45368;55.002;-1.592;2023-06-14T02:56:30;101367.70;;;18.89;46.59
59545;BME280;45368;55.002;-1.592;2023-06-14T02:58:57;101368.72;;;18.64;46.81
59545;BME280;45368;55.002;-1.592;2023-06-14T03:01:25;101373.43;;;18.64;46.77
59545;BME280;45368;55.002;-1.592;2023-06-14T03:03:53;101378.87;;;18.38;47.21
59545;BME280;45368;55.002;-1.592;2023-06-14T03:06:20;101381.12;;;18.36;47.22
59545;BME280;45368;55.002;-1.592;2023-06-14T03:08:47;101381.70;;;18.15;47.59
59545;BME280;45368;55.002;-1.592;2023-06-14T03:11:14;101380.24;;;18.05;47.97
59545;BME280;45368;55.002;-1.592;2023-06-14T03:13:42;101379.05;;;18.15;48.10
59545;BME280;45368;55.002;-1.592;2023-06-14T03:16:09;101380.57;;;18.32;47.76
59545;BME280;45368;55.002;-1.592;2023-06-14T03:18:37;101380.45;;;18.42;47.49
59545;BME280;45368;55.002;-1.592;2023-06-14T03:21:04;101377.34;;;18.49;47.27
59545;BME280;45368;55.002;-1.592;2023-06-14T03:23:31;101379.73;;;18.24;47.69
59545;BME280;45368;55.002;-1.592;2023-06-14T03:25:58;101380.18;;;18.26;47.75
59545;BME280;45368;55.002;-1.592;2023-06-14T03:28:26;101380.37;;;18.24;48.05
59545;BME280;45368;55.002;-1.592;2023-06-14T03:30:57;101381.94;;;18.25;48.02
59545;BME280;45368;55.002;-1.592;2023-06-14T03:33:29;101384.69;;;18.05;48.26
59545;BME280;45368;55.002;-1.592;2023-06-14T03:35:55;101388.41;;;18.26;48.38
59545;BME280;45368;55.002;-1.592;2023-06-14T03:38:22;101391.84;;;18.21;48.23
59545;BME280;45368;55.002;-1.592;2023-06-14T03:48:52;101397.79;;;17.05;50.01
59545;BME280;45368;55.002;-1.592;2023-06-14T03:51:20;101401.80;;;17.38;47.76
59545;BME280;45368;55.002;-1.592;2023-06-14T03:53:47;101400.79;;;18.35;46.46
59545;BME280;45368;55.002;-1.592;2023-06-14T03:56:14;101401.85;;;18.00;46.65
59545;BME280;45368;55.002;-1.592;2023-06-14T03:58:41;101400.16;;;18.46;46.13
59545;BME280;45368;55.002;-1.592;2023-06-14T04:01:09;101401.24;;;18.47;45.59
59545;BME280;45368;55.002;-1.592;2023-06-14T04:03:36;101402.60;;;18.13;46.09
59545;BME280;45368;55.002;-1.592;2023-06-14T04:06:04;101404.60;;;18.34;45.87
59545;BME280;45368;55.002;-1.592;2023-06-14T04:08:32;101404.43;;;18.31;45.93
59545;BME280;45368;55.002;-1.592;2023-06-14T04:10:59;101406.44;;;17.96;45.96
59545;BME280;45368;55.002;-1.592;2023-06-14T04:13:26;101405.90;;;18.39;45.80
59545;BME280;45368;55.002;-1.592;2023-06-14T04:15:53;101402.94;;;18.22;45.69
59545;BME280;45368;55.002;-1.592;2023-06-14T04:18:20;101407.09;;;18.41;45.66
59545;BME280;45368;55.002;-1.592;2023-06-14T04:20:47;101406.66;;;18.37;45.47
59545;BME280;45368;55.002;-1.592;2023-06-14T04:23:15;101408.25;;;18.53;45.94
59545;BME280;45368;55.002;-1.592;2023-06-14T04:25:43;101405.46;;;18.43;45.88
59545;BME280;45368;55.002;-1.592;2023-06-14T04:28:11;101405.92;;;18.79;46.01
59545;BME280;45368;55.002;-1.592;2023-06-14T04:30:38;101409.38;;;18.85;46.15
59545;BME280;45368;55.002;-1.592;2023-06-14T04:33:05;101410.12;;;18.61;46.35
59545;BME280;45368;55.002;-1.592;2023-06-14T04:35:33;101409.46;;;18.98;45.70
59545;BME280;45368;55.002;-1.592;2023-06-14T04:38:00;101416.06;;;19.02;45.70
59545;BME280;45368;55.002;-1.592;2023-06-14T04:40:28;101417.28;;;18.65;46.11
59545;BME280;45368;55.002;-1.592;2023-06-14T04:42:55;101415.43;;;19.14;45.63
59545;BME280;45368;55.002;-1.592;2023-06-14T04:45:22;101415.60;;;19.28;45.39
59545;BME280;45368;55.002;-1.592;2023-06-14T04:47:49;101417.81;;;19.24;45.63
59545;BME280;45368;55.002;-1.592;2023-06-14T04:50:17;101417.59;;;19.10;45.89
59545;BME280;45368;55.002;-1.592;2023-06-14T04:52:44;101416.68;;;19.46;45.63
59545;BME280;45368;55.002;-1.592;2023-06-14T04:55:12;101420.37;;;18.61;47.04
59545;BME280;45368;55.002;-1.592;2023-06-14T04:57:39;101419.92;;;18.36;47.14
59545;BME280;45368;55.002;-1.592;2023-06-14T05:00:07;101422.06;;;18.10;48.27
59545;BME280;45368;55.002;-1.592;2023-06-14T05:02:35;101422.42;;;19.08;46.45
59545;BME280;45368;55.002;-1.592;2023-06-14T05:05:03;101425.00;;;19.27;46.02
59545;BME280;45368;55.002;-1.592;2023-06-14T05:07:30;101430.65;;;18.64;47.35
59545;BME280;45368;55.002;-1.592;2023-06-14T05:09:57;101440.38;;;16.79;49.87
59545;BME280;45368;55.002;-1.592;2023-06-14T05:12:24;101441.82;;;17.55;49.23
59545;BME280;45368;55.002;-1.592;2023-06-14T05:14:52;101438.89;;;18.48;47.71
59545;BME280;45368;55.002;-1.592;2023-06-14T05:17:19;101439.89;;;18.48;46.39
59545;BME280;45368;55.002;-1.592;2023-06-14T05:19:47;101438.21;;;18.68;46.07
59545;BME280;45368;55.002;-1.592;2023-06-14T05:22:13;101439.43;;;18.41;46.38
59545;BME280;45368;55.002;-1.592;2023-06-14T05:24:40;101432.48;;;19.09;44.85
59545;BME280;45368;55.002;-1.592;2023-06-14T05:27:07;101432.51;;;19.39;44.65
59545;BME280;45368;55.002;-1.592;2023-06-14T05:29:35;101438.39;;;18.84;45.49
59545;BME280;45368;55.002;-1.592;2023-06-14T05:32:02;101435.09;;;19.44;44.47
59545;BME280;45368;55.002;-1.592;2023-06-14T05:34:29;101435.61;;;19.61;44.12
59545;BME280;45368;55.002;-1.592;2023-06-14T05:36:56;101437.28;;;19.42;44.21
59545;BME280;45368;55.002;-1.592;2023-06-14T05:39:23;101437.58;;;18.98;44.93
59545;BME280;45368;55.002;-1.592;2023-06-14T05:41:50;101434.93;;;18.67;45.41
59545;BME280;45368;55.002;-1.592;2023-06-14T05:44:17;101436.49;;;18.46;46.71
59545;BME280;45368;55.002;-1.592;2023-06-14T05:46:44;101436.78;;;17.75;47.40
59545;BME280;45368;55.002;-1.592;2023-06-14T05:49:12;101439.93;;;17.82;48.82
59545;BME280;45368;55.002;-1.592;2023-06-14T05:51:39;101438.24;;;17.53;49.12
59545;BME280;45368;55.002;-1.592;2023-06-14T05:54:06;101444.17;;;17.97;49.00
59545;BME280;45368;55.002;-1.592;2023-06-14T05:56:34;101438.69;;;17.90;48.32
59545;BME280;45368;55.002;-1.592;2023-06-14T05:59:01;101438.05;;;18.21;47.94
59545;BME280;45368;55.002;-1.592;2023-06-14T06:01:29;101434.00;;;18.25;47.26
59545;BME280;45368;55.002;-1.592;2023-06-14T06:03:55;101434.91;;;18.39;46.56
59545;BME280;45368;55.002;-1.592;2023-06-14T06:06:23;101436.03;;;18.56;46.44
59545;BME280;45368;55.002;-1.592;2023-06-14T06:08:50;101440.11;;;18.16;47.42
59545;BME280;45368;55.002;-1.592;2023-06-14T06:11:18;101437.15;;;18.71;46.17
59545;BME280;45368;55.002;-1.592;2023-06-14T06:13:45;101432.51;;;18.87;45.84
59545;BME280;45368;55.002;-1.592;2023-06-14T06:16:13;101436.38;;;18.93;45.11
59545;BME280;45368;55.002;-1.592;2023-06-14T06:18:40;101435.15;;;19.37;44.87
59545;BME280;45368;55.002;-1.592;2023-06-14T06:21:07;101435.06;;;19.36;45.01
59545;BME280;45368;55.002;-1.592;2023-06-14T06:23:34;101437.90;;;19.43;44.46
59545;BME280;45368;55.002;-1.592;2023-06-14T06:26:02;101439.82;;;19.57;43.68
59545;BME280;45368;55.002;-1.592;2023-06-14T06:28:30;101437.74;;;19.98;42.97
59545;BME280;45368;55.002;-1.592;2023-06-14T06:30:56;101440.55;;;19.99;42.68
59545;BME280;45368;55.002;-1.592;2023-06-14T06:33:23;101442.01;;;20.08;43.10
59545;BME280;45368;55.002;-1.592;2023-06-14T06:35:50;101440.36;;;19.82;42.83
59545;BME280;45368;55.002;-1.592;2023-06-14T06:38:17;101440.18;;;20.16;42.66
59545;BME280;45368;55.002;-1.592;2023-06-14T06:40:44;101442.44;;;19.61;42.35
59545;BME280;45368;55.002;-1.592;2023-06-14T06:43:12;101443.21;;;20.27;41.70
59545;BME280;45368;55.002;-1.592;2023-06-14T06:45:39;101446.98;;;19.40;42.76
59545;BME280;45368;55.002;-1.592;2023-06-14T06:48:07;101446.20;;;19.61;41.24
59545;BME280;45368;55.002;-1.592;2023-06-14T06:50:34;101446.94;;;20.13;41.32
59545;BME280;45368;55.002;-1.592;2023-06-14T06:53:01;101444.71;;;20.49;39.95
59545;BME280;45368;55.002;-1.592;2023-06-14T06:55:30;101444.89;;;21.11;39.11
59545;BME280;45368;55.002;-1.592;2023-06-14T06:57:58;101441.96;;;21.24;37.68
59545;BME280;45368;55.002;-1.592;2023-06-14T07:00:24;101447.82;;;20.82;36.16
59545;BME280;45368;55.002;-1.592;2023-06-14T07:02:52;101453.44;;;19.00;37.15
59545;BME280;45368;55.002;-1.592;2023-06-14T07:05:19;101449.45;;;20.04;35.65
59545;BME280;45368;55.002;-1.592;2023-06-14T07:07:47;101449.25;;;20.37;35.47
59545;BME280;45368;55.002;-1.592;2023-06-14T07:10:13;101451.41;;;19.92;36.06
59545;BME280;45368;55.002;-1.592;2023-06-14T07:12:41;101449.57;;;20.39;35.08
59545;BME280;45368;55.002;-1.592;2023-06-14T07:15:10;101453.85;;;20.17;35.89
59545;BME280;45368;55.002;-1.592;2023-06-14T07:17:37;101454.03;;;20.74;34.12
59545;BME280;45368;55.002;-1.592;2023-06-14T07:20:05;101454.65;;;20.33;34.97
59545;BME280;45368;55.002;-1.592;2023-06-14T07:22:33;101452.54;;;21.14;34.18
59545;BME280;45368;55.002;-1.592;2023-06-14T07:25:00;101451.93;;;21.45;33.86
59545;BME280;45368;55.002;-1.592;2023-06-14T07:27:27;101452.92;;;21.81;33.43
59545;BME280;45368;55.002;-1.592;2023-06-14T07:29:55;101453.97;;;21.88;32.88
59545;BME280;45368;55.002;-1.592;2023-06-14T07:32:22;101457.32;;;22.07;33.57
59545;BME280;45368;55.002;-1.592;2023-06-14T07:34:53;101457.56;;;22.71;32.43
59545;BME280;45368;55.002;-1.592;2023-06-14T07:37:23;101456.49;;;22.22;32.66
59545;BME280;45368;55.002;-1.592;2023-06-14T07:39:50;101458.28;;;22.24;33.22
59545;BME280;45368;55.002;-1.592;2023-06-14T07:42:21;101458.02;;;22.37;32.02
59545;BME280;45368;55.002;-1.592;2023-06-14T07:44:49;101461.21;;;21.74;33.06
59545;BME280;45368;55.002;-1.592;2023-06-14T07:47:16;101460.09;;;22.32;32.77
59545;BME280;45368;55.002;-1.592;2023-06-14T07:49:44;101457.72;;;22.62;31.09
59545;BME280;45368;55.002;-1.592;2023-06-14T07:52:12;101459.03;;;22.63;32.25
59545;BME280;45368;55.002;-1.592;2023-06-14T07:54:39;101461.87;;;21.97;33.34
59545;BME280;45368;55.002;-1.592;2023-06-14T07:57:07;101462.30;;;21.61;33.56
59545;BME280;45368;55.002;-1.592;2023-06-14T07:59:35;101464.68;;;21.26;33.29
59545;BME280;45368;55.002;-1.592;2023-06-14T08:02:03;101466.93;;;22.20;31.89
59545;BME280;45368;55.002;-1.592;2023-06-14T08:04:31;101468.43;;;22.04;31.41
59545;BME280;45368;55.002;-1.592;2023-06-14T08:06:59;101470.54;;;21.86;31.83
59545;BME280;45368;55.002;-1.592;2023-06-14T08:09:26;101471.79;;;20.79;32.72
59545;BME280;45368;55.002;-1.592;2023-06-14T08:11:54;101473.94;;;21.51;32.33
59545;BME280;45368;55.002;-1.592;2023-06-14T08:14:21;101480.55;;;20.66;33.44
59545;BME280;45368;55.002;-1.592;2023-06-14T08:16:47;101485.49;;;21.44;32.79
59545;BME280;45368;55.002;-1.592;2023-06-14T08:19:15;101488.55;;;20.86;33.47
59545;BME280;45368;55.002;-1.592;2023-06-14T08:21:43;101490.21;;;19.87;35.32
59545;BME280;45368;55.002;-1.592;2023-06-14T08:24:11;101488.57;;;21.19;34.01
59545;BME280;45368;55.002;-1.592;2023-06-14T08:26:39;101489.56;;;20.84;34.53
59545;BME280;45368;55.002;-1.592;2023-06-14T08:29:07;101489.09;;;20.89;34.37
59545;BME280;45368;55.002;-1.592;2023-06-14T08:31:34;101486.40;;;21.38;33.99
59545;BME280;45368;55.002;-1.592;2023-06-14T08:34:02;101494.03;;;20.90;34.97
59545;BME280;45368;55.002;-1.592;2023-06-14T08:36:30;101488.22;;;21.61;33.84
59545;BME280;45368;55.002;-1.592;2023-06-14T08:38:56;101494.77;;;21.22;34.81
59545;BME280;45368;55.002;-1.592;2023-06-14T08:41:24;101493.68;;;20.41;36.00
59545;BME280;45368;55.002;-1.592;2023-06-14T08:43:52;101491.52;;;21.49;34.54
59545;BME280;45368;55.002;-1.592;2023-06-14T08:46:19;101492.47;;;21.84;35.06
59545;BME280;45368;55.002;-1.592;2023-06-14T08:48:49;101487.18;;;21.51;33.68
59545;BME280;45368;55.002;-1.592;2023-06-14T08:51:18;101492.17;;;21.04;35.02
59545;BME280;45368;55.002;-1.592;2023-06-14T08:53:53;101491.07;;;20.88;35.70
59545;BME280;45368;55.002;-1.592;2023-06-14T08:56:22;101494.22;;;20.49;35.59
59545;BME280;45368;55.002;-1.592;2023-06-14T08:58:50;101493.21;;;21.31;35.06
59545;BME280;45368;55.002;-1.592;2023-06-14T09:01:17;101489.70;;;21.41;34.65
59545;BME280;45368;55.002;-1.592;2023-06-14T09:03:44;101493.12;;;21.30;34.91
59545;BME280;45368;55.002;-1.592;2023-06-14T09:06:12;101492.03;;;21.73;35.15
59545;BME280;45368;55.002;-1.592;2023-06-14T09:08:42;101488.87;;;21.82;33.90
59545;BME280;45368;55.002;-1.592;2023-06-14T09:11:11;101489.29;;;20.12;36.16
59545;BME280;45368;55.002;-1.592;2023-06-14T09:13:39;101488.02;;;21.84;34.70
59545;BME280;45368;55.002;-1.592;2023-06-14T09:17:24;101487.28;;;23.24;32.75
59545;BME280;45368;55.002;-1.592;2023-06-14T09:19:55;101480.08;;;24.05;31.43
59545;BME280;45368;55.002;-1.592;2023-06-14T09:22:22;101485.36;;;23.96;30.66
59545;BME280;45368;55.002;-1.592;2023-06-14T09:24:49;101483.27;;;23.80;31.85
59545;BME280;45368;55.002;-1.592;2023-06-14T09:27:16;101489.03;;;23.20;31.82
59545;BME280;45368;55.002;-1.592;2023-06-14T09:29:44;101489.20;;;22.78;32.97
59545;BME280;45368;55.002;-1.592;2023-06-14T09:32:10;101488.96;;;21.89;33.84
59545;BME280;45368;55.002;-1.592;2023-06-14T09:34:38;101496.85;;;21.33;33.81
59545;BME280;45368;55.002;-1.592;2023-06-14T09:37:05;101496.96;;;21.74;34.59
59545;BME280;45368;55.002;-1.592;2023-06-14T09:39:32;101501.81;;;21.62;34.62
59545;BME280;45368;55.002;-1.592;2023-06-14T09:42:00;101501.80;;;20.84;35.23
59545;BME280;45368;55.002;-1.592;2023-06-14T09:44:28;101506.08;;;20.97;35.11
59545;BME280;45368;55.002;-1.592;2023-06-14T09:46:56;101502.48;;;21.17;35.72
59545;BME280;45368;55.002;-1.592;2023-06-14T09:49:24;101507.13;;;21.06;34.73
59545;BME280;45368;55.002;-1.592;2023-06-14T09:51:53;101505.46;;;21.12;34.45
59545;BME280;45368;55.002;-1.592;2023-06-14T09:54:23;101503.98;;;21.38;35.59
59545;BME280;45368;55.002;-1.592;2023-06-14T09:56:52;101501.59;;;20.99;37.41
59545;BME280;45368;55.002;-1.592;2023-06-14T09:59:25;101499.51;;;21.65;35.30
59545;BME280;45368;55.002;-1.592;2023-06-14T10:01:57;101498.71;;;21.48;35.37
59545;BME280;45368;55.002;-1.592;2023-06-14T10:04:25;101499.12;;;21.46;34.15
59545;BME280;45368;55.002;-1.592;2023-06-14T10:06:54;101506.40;;;20.71;36.66
59545;BME280;45368;55.002;-1.592;2023-06-14T10:09:22;101505.48;;;22.11;35.45
59545;BME280;45368;55.002;-1.592;2023-06-14T10:11:49;101508.88;;;22.28;34.51
59545;BME280;45368;55.002;-1.592;2023-06-14T10:14:17;101507.30;;;22.22;33.25
59545;BME280;45368;55.002;-1.592;2023-06-14T10:16:51;101505.44;;;22.49;33.57
59545;BME280;45368;55.002;-1.592;2023-06-14T10:19:24;101505.22;;;22.47;33.53
59545;BME280;45368;55.002;-1.592;2023-06-14T10:22:02;101505.06;;;22.29;34.09
59545;BME280;45368;55.002;-1.592;2023-06-14T10:24:35;101504.41;;;22.37;33.70
59545;BME280;45368;55.002;-1.592;2023-06-14T10:27:06;101507.11;;;21.09;35.14
59545;BME280;45368;55.002;-1.592;2023-06-14T10:29:34;101509.63;;;21.41;35.13
59545;BME280;45368;55.002;-1.592;2023-06-14T10:32:28;101505.17;;;22.78;34.19
59545;BME280;45368;55.002;-1.592;2023-06-14T10:34:56;101507.63;;;21.80;35.04
59545;BME280;45368;55.002;-1.592;2023-06-14T10:37:24;101505.14;;;22.23;34.21
59545;BME280;45368;55.002;-1.592;2023-06-14T10:39:51;101502.70;;;22.48;34.22
59545;BME280;45368;55.002;-1.592;2023-06-14T10:42:19;101503.89;;;23.16;32.52
59545;BME280;45368;55.002;-1.592;2023-06-14T10:44:50;101500.99;;;22.98;32.73
59545;BME280;45368;55.002;-1.592;2023-06-14T10:47:23;101502.06;;;23.06;33.51
59545;BME280;45368;55.002;-1.592;2023-06-14T10:49:52;101504.47;;;22.33;32.69
59545;BME280;45368;55.002;-1.592;2023-06-14T10:52:23;101498.25;;;22.23;35.06
59545;BME280;45368;55.002;-1.592;2023-06-14T10:55:09;101498.41;;;22.55;32.30
59545;BME280;45368;55.002;-1.592;2023-06-14T10:57:39;101495.46;;;24.41;30.32
59545;BME280;45368;55.002;-1.592;2023-06-14T11:00:08;101493.99;;;24.65;28.81
59545;BME280;45368;55.002;-1.592;2023-06-14T11:03:51;101476.70;;;26.67;26.96
59545;BME280;45368;55.002;-1.592;2023-06-14T11:06:22;101469.51;;;29.77;23.12
59545;BME280;45368;55.002;-1.592;2023-06-14T11:09:12;101470.97;;;30.33;21.44
59545;BME280;45368;55.002;-1.592;2023-06-14T11:11:48;101467.87;;;31.98;19.44
59545;BME280;45368;55.002;-1.592;2023-06-14T11:14:15;101469.74;;;32.47;19.52
59545;BME280;45368;55.002;-1.592;2023-06-14T11:16:48;101472.16;;;32.37;19.37
59545;BME280;45368;55.002;-1.592;2023-06-14T11:19:15;101470.81;;;30.68;20.34
59545;BME280;45368;55.002;-1.592;2023-06-14T11:21:42;101469.56;;;30.58;20.58
59545;BME280;45368;55.002;-1.592;2023-06-14T11:24:14;101467.62;;;31.18;18.79
59545;BME280;45368;55.002;-1.592;2023-06-14T11:26:41;101467.18;;;33.29;17.68
59545;BME280;45368;55.002;-1.592;2023-06-14T11:29:09;101460.16;;;34.31;17.19
59545;BME280;45368;55.002;-1.592;2023-06-14T11:31:36;101465.00;;;33.32;17.60
59545;BME280;45368;55.002;-1.592;2023-06-14T11:34:04;101464.82;;;34.06;17.51
59545;BME280;45368;55.002;-1.592;2023-06-14T11:36:34;101462.54;;;31.58;18.50
59545;BME280;45368;55.002;-1.592;2023-06-14T11:39:02;101465.05;;;32.10;18.60
59545;BME280;45368;55.002;-1.592;2023-06-14T11:41:35;101457.81;;;32.50;18.19
59545;BME280;45368;55.002;-1.592;2023-06-14T11:44:03;101460.68;;;32.46;18.15
59545;BME280;45368;55.002;-1.592;2023-06-14T11:46:30;101460.59;;;32.16;17.45
59545;BME280;45368;55.002;-1.592;2023-06-14T11:48:58;101460.32;;;31.29;19.06
59545;BME280;45368;55.002;-1.592;2023-06-14T11:51:26;101464.85;;;29.91;19.10
59545;BME280;45368;55.002;-1.592;2023-06-14T11:53:54;101465.21;;;28.83;20.19
59545;BME280;45368;55.002;-1.592;2023-06-14T11:56:21;101466.40;;;28.42;20.72
59545;BME280;45368;55.002;-1.592;2023-06-14T11:58:49;101470.45;;;27.71;21.83
59545;BME280;45368;55.002;-1.592;2023-06-14T12:01:17;101472.53;;;25.74;24.76
59545;BME280;45368;55.002;-1.592;2023-06-14T12:03:48;101470.84;;;25.49;24.76
59545;BME280;45368;55.002;-1.592;2023-06-14T12:06:16;101472.34;;;24.57;25.75
59545;BME280;45368;55.002;-1.592;2023-06-14T12:08:43;101467.31;;;24.32;25.35
59545;BME280;45368;55.002;-1.592;2023-06-14T12:11:12;101466.24;;;24.65;26.70
59545;BME280;45368;55.002;-1.592;2023-06-14T12:13:40;101467.08;;;24.14;27.01
59545;BME280;45368;55.002;-1.592;2023-06-14T12:16:07;101472.71;;;23.64;27.14
59545;BME280;45368;55.002;-1.592;2023-06-14T12:18:37;101470.72;;;23.75;27.56
59545;BME280;45368;55.002;-1.592;2023-06-14T12:21:05;101476.49;;;23.44;27.38
59545;BME280;45368;55.002;-1.592;2023-06-14T12:23:42;101471.56;;;23.38;28.77
59545;BME280;45368;55.002;-1.592;2023-06-14T12:26:09;101477.19;;;22.97;29.14
59545;BME280;45368;55.002;-1.592;2023-06-14T12:28:36;101477.87;;;22.69;28.38
59545;BME280;45368;55.002;-1.592;2023-06-14T12:31:03;101481.77;;;21.68;29.85
59545;BME280;45368;55.002;-1.592;2023-06-14T12:33:30;101480.85;;;22.67;28.65
59545;BME280;45368;55.002;-1.592;2023-06-14T12:35:57;101481.94;;;22.43;28.69
59545;BME280;45368;55.002;-1.592;2023-06-14T12:38:25;101485.36;;;22.59;28.04
59545;BME280;45368;55.002;-1.592;2023-06-14T12:40:51;101486.29;;;22.52;28.40
59545;BME280;45368;55.002;-1.592;2023-06-14T12:43:18;101488.87;;;22.95;29.39
59545;BME280;45368;55.002;-1.592;2023-06-14T12:45:45;101480.23;;;23.12;28.19
59545;BME280;45368;55.002;-1.592;2023-06-14T12:48:12;101483.78;;;22.57;28.50
59545;BME280;45368;55.002;-1.592;2023-06-14T12:50:39;101483.95;;;23.38;27.31
59545;BME280;45368;55.002;-1.592;2023-06-14T12:53:05;101483.60;;;22.21;27.79
59545;BME280;45368;55.002;-1.592;2023-06-14T12:55:32;101486.15;;;23.51;26.73